createdAt,value
2022-07-30T00:00:25.125Z,99.90
2022-07-30T00:02:56.263Z,99.90
2022-07-30T00:05:26.758Z,99.90
2022-07-30T00:07:57.254Z,99.90
2022-07-30T00:10:27.885Z,99.90
2022-07-30T00:12:59.381Z,99.90
2022-07-30T00:15:29.867Z,99.90
2022-07-30T00:18:00.181Z,99.90
2022-07-30T00:20:30.772Z,99.90
2022-07-30T00:23:07.109Z,99.90
2022-07-30T00:25:37.432Z,99.90
2022-07-30T00:28:07.860Z,99.90
2022-07-30T00:30:38.323Z,99.90
2022-07-30T00:33:09.193Z,99.90
2022-07-30T00:35:41.833Z,99.90
2022-07-30T00:38:12.310Z,99.90
2022-07-30T00:40:44.284Z,99.90
2022-07-30T00:43:19.489Z,99.90
2022-07-30T00:45:50.388Z,99.90
2022-07-30T00:48:20.917Z,99.90
2022-07-30T00:50:51.247Z,99.90
2022-07-30T00:53:22.817Z,99.90
2022-07-30T00:55:53.346Z,99.90
2022-07-30T00:58:23.945Z,99.90
2022-07-30T01:00:54.424Z,99.90
2022-07-30T01:03:24.972Z,99.90
2022-07-30T01:05:55.231Z,99.90
2022-07-30T01:08:25.607Z,99.90
2022-07-30T01:10:55.886Z,99.90
2022-07-30T01:13:26.493Z,99.90
2022-07-30T01:15:57.198Z,99.90
2022-07-30T01:18:48.933Z,99.90
2022-07-30T01:21:23.958Z,99.90
2022-07-30T01:23:59.387Z,99.90
2022-07-30T01:26:30.182Z,99.90
2022-07-30T01:29:03.232Z,99.90
2022-07-30T01:31:35.588Z,99.90
2022-07-30T01:34:06.920Z,99.90
2022-07-30T01:36:37.779Z,99.90
2022-07-30T01:39:08.730Z,99.90
2022-07-30T01:41:39.923Z,99.90
2022-07-30T01:44:12.865Z,99.90
2022-07-30T01:46:43.906Z,99.80
2022-07-30T01:49:14.903Z,99.60
2022-07-30T01:51:46.672Z,99.20
2022-07-30T01:54:20.474Z,99.20
2022-07-30T01:56:53.909Z,98.90
2022-07-30T01:59:27.477Z,98.90
2022-07-30T02:01:57.735Z,98.70
2022-07-30T02:04:29.300Z,98.50
2022-07-30T02:07:19.083Z,98.30
2022-07-30T02:09:54.732Z,98.50
2022-07-30T02:12:34.625Z,98.50
2022-07-30T02:15:32.360Z,98.40
2022-07-30T02:18:19.583Z,98.30
2022-07-30T02:21:02.545Z,97.70
2022-07-30T02:23:41.616Z,97.30
2022-07-30T02:26:18.366Z,96.70
2022-07-30T02:28:57.089Z,96.40
2022-07-30T02:31:30.726Z,96.80
2022-07-30T02:34:03.679Z,96.30
2022-07-30T02:37:50.763Z,95.70
2022-07-30T02:40:23.520Z,95.70
2022-07-30T02:42:55.629Z,95.40
2022-07-30T02:45:29.131Z,95.10
2022-07-30T02:48:03.575Z,95.10
2022-07-30T02:50:34.732Z,94.70
2022-07-30T02:53:07.849Z,94.60
2022-07-30T02:55:41.003Z,94.60
2022-07-30T02:58:14.087Z,94.50
2022-07-30T03:00:45.535Z,93.80
2022-07-30T03:03:17.419Z,93.60
2022-07-30T03:05:48.921Z,93.50
2022-07-30T03:08:20.110Z,94.00
2022-07-30T03:10:52.256Z,94.70
2022-07-30T03:13:24.565Z,94.60
2022-07-30T03:15:56.625Z,94.70
2022-07-30T03:18:30.695Z,94.20
2022-07-30T03:21:03.209Z,93.70
2022-07-30T03:23:36.579Z,92.80
2022-07-30T03:26:10.776Z,92.70
2022-07-30T03:28:43.425Z,93.20
2022-07-30T03:31:15.477Z,92.70
2022-07-30T03:33:47.127Z,92.80
2022-07-30T03:36:18.337Z,93.30
2022-07-30T03:38:50.878Z,93.10
2022-07-30T03:41:21.915Z,93.10
2022-07-30T03:43:53.194Z,92.90
2022-07-30T03:46:24.800Z,94.10
2022-07-30T03:48:56.929Z,93.70
2022-07-30T03:51:30.637Z,93.80
2022-07-30T03:54:04.602Z,93.90
2022-07-30T03:56:36.226Z,94.00
2022-07-30T03:59:07.629Z,94.10
2022-07-30T04:01:37.973Z,94.00
2022-07-30T04:04:11.493Z,94.20
2022-07-30T04:06:42.492Z,94.40
2022-07-30T04:09:14.384Z,94.40
2022-07-30T04:11:44.768Z,94.40
2022-07-30T04:14:15.203Z,94.10
2022-07-30T04:17:05.960Z,94.80
2022-07-30T04:19:44.654Z,94.40
2022-07-30T04:22:18.518Z,95.50
2022-07-30T04:24:49.468Z,94.70
2022-07-30T04:27:20.775Z,95.10
2022-07-30T04:29:51.572Z,94.40
2022-07-30T04:32:22.189Z,95.00
2022-07-30T04:34:54.780Z,95.30
2022-07-30T04:37:28.118Z,94.80
2022-07-30T04:40:00.049Z,94.10
2022-07-30T04:42:32.154Z,94.40
2022-07-30T04:45:02.577Z,94.20
2022-07-30T04:47:34.045Z,94.20
2022-07-30T04:50:06.962Z,94.20
2022-07-30T04:52:38.687Z,93.40
2022-07-30T04:55:12.349Z,93.40
2022-07-30T04:57:44.690Z,93.30
2022-07-30T05:00:15.688Z,93.10
2022-07-30T05:02:47.457Z,93.30
2022-07-30T05:05:19.747Z,93.50
2022-07-30T05:07:50.190Z,91.80
2022-07-30T05:10:21.418Z,92.30
2022-07-30T05:12:51.685Z,92.10
2022-07-30T05:15:22.386Z,92.90
2022-07-30T05:18:07.151Z,92.00
2022-07-30T05:20:37.593Z,92.40
2022-07-30T05:23:08.334Z,92.70
2022-07-30T05:25:38.755Z,92.40
2022-07-30T05:28:09.090Z,92.30
2022-07-30T05:30:41.981Z,92.00
2022-07-30T05:33:15.902Z,92.20
2022-07-30T05:35:46.402Z,91.50
2022-07-30T05:38:17.129Z,91.20
2022-07-30T05:40:48.839Z,92.40
2022-07-30T05:43:19.233Z,92.10
2022-07-30T05:45:49.523Z,92.20
2022-07-30T05:48:19.923Z,91.90
2022-07-30T05:50:50.218Z,92.60
2022-07-30T05:53:20.565Z,92.10
2022-07-30T05:55:50.853Z,92.20
2022-07-30T05:58:22.350Z,92.50
2022-07-30T06:00:53.080Z,92.20
2022-07-30T06:03:23.376Z,92.50
2022-07-30T06:05:54.094Z,91.60
2022-07-30T06:08:24.680Z,91.60
2022-07-30T06:10:54.990Z,91.70
2022-07-30T06:13:25.242Z,92.00
2022-07-30T06:15:55.960Z,91.70
2022-07-30T06:18:26.422Z,91.90
2022-07-30T06:20:57.876Z,91.50
2022-07-30T06:23:28.161Z,91.90
2022-07-30T06:25:58.527Z,91.40
2022-07-30T06:28:37.649Z,91.10
2022-07-30T06:31:10.102Z,91.20
2022-07-30T06:33:40.487Z,90.40
2022-07-30T06:36:14.027Z,91.00
2022-07-30T06:38:44.924Z,90.60
2022-07-30T06:41:15.281Z,90.80
2022-07-30T06:43:45.547Z,91.00
2022-07-30T06:46:15.923Z,90.80
2022-07-30T06:48:46.491Z,90.70
2022-07-30T06:51:16.836Z,91.10
2022-07-30T06:53:48.051Z,91.40
2022-07-30T06:56:18.601Z,91.50
2022-07-30T06:58:49.009Z,91.50
2022-07-30T07:01:19.346Z,91.10
2022-07-30T07:03:49.697Z,91.80
2022-07-30T07:06:19.979Z,91.60
2022-07-30T07:08:50.378Z,91.60
2022-07-30T07:11:20.635Z,91.40
2022-07-30T07:13:50.958Z,90.60
2022-07-30T07:16:23.845Z,91.20
2022-07-30T07:18:55.375Z,91.50
2022-07-30T07:21:25.795Z,90.90
2022-07-30T07:23:56.190Z,91.30
2022-07-30T07:26:26.583Z,91.20
2022-07-30T07:28:56.947Z,90.80
2022-07-30T07:32:07.044Z,91.00
2022-07-30T07:34:18.954Z,91.00
2022-07-30T07:36:49.446Z,90.80
2022-07-30T07:39:19.712Z,91.00
2022-07-30T07:41:50.762Z,90.60
2022-07-30T07:44:21.089Z,91.30
2022-07-30T07:46:51.544Z,90.70
2022-07-30T07:49:21.866Z,90.30
2022-07-30T07:51:52.291Z,90.90
2022-07-30T07:54:23.356Z,90.60
2022-07-30T07:56:54.842Z,90.70
2022-07-30T07:59:36.276Z,90.90
2022-07-30T08:02:11.824Z,90.80
2022-07-30T08:04:42.502Z,90.40
2022-07-30T08:07:12.858Z,90.20
2022-07-30T08:09:44.671Z,90.60
2022-07-30T08:12:16.054Z,90.40
2022-07-30T08:14:46.347Z,88.20
2022-07-30T08:17:16.673Z,90.50
2022-07-30T08:19:47.228Z,90.10
2022-07-30T08:22:17.589Z,89.80
2022-07-30T08:24:47.995Z,89.20
2022-07-30T08:27:18.412Z,89.90
2022-07-30T08:29:48.773Z,90.40
2022-07-30T08:32:19.153Z,91.00
2022-07-30T08:34:49.987Z,90.80
2022-07-30T08:37:20.338Z,91.00
2022-07-30T08:39:50.861Z,91.30
2022-07-30T08:42:21.707Z,90.90
2022-07-30T08:44:55.212Z,91.00
2022-07-30T08:47:36.813Z,90.50
2022-07-30T08:50:08.018Z,91.00
2022-07-30T08:52:40.438Z,90.50
2022-07-30T08:55:11.579Z,90.10
2022-07-30T08:57:42.081Z,90.50
2022-07-30T09:00:13.322Z,90.30
2022-07-30T09:02:43.710Z,90.40
2022-07-30T09:05:15.279Z,89.60
2022-07-30T09:07:45.788Z,89.20
2022-07-30T09:10:16.330Z,90.00
2022-07-30T09:12:47.902Z,90.20
2022-07-30T09:15:23.027Z,90.40
2022-07-30T09:18:04.315Z,90.50
2022-07-30T09:20:37.803Z,90.40
2022-07-30T09:23:09.519Z,90.00
2022-07-30T09:25:47.950Z,90.10
2022-07-30T09:28:18.713Z,90.60
2022-07-30T09:30:56.142Z,91.10
2022-07-30T09:33:40.352Z,91.30
2022-07-30T09:36:14.253Z,90.70
2022-07-30T09:38:54.239Z,90.90
2022-07-30T09:41:40.055Z,91.40
2022-07-30T09:44:10.550Z,91.70
2022-07-30T09:46:49.188Z,92.30
2022-07-30T09:49:26.902Z,92.40
2022-07-30T09:51:58.633Z,92.10
2022-07-30T09:54:50.606Z,92.30
2022-07-30T09:57:27.275Z,92.10
2022-07-30T10:00:01.038Z,92.40
2022-07-30T10:02:34.471Z,92.60
2022-07-30T10:05:21.256Z,92.20
2022-07-30T10:08:09.366Z,92.40
2022-07-30T10:10:50.986Z,92.30
2022-07-30T10:13:23.487Z,92.20
2022-07-30T10:16:02.723Z,91.60
2022-07-30T10:18:33.655Z,91.50
2022-07-30T10:21:06.074Z,91.70
2022-07-30T10:23:39.767Z,91.70
2022-07-30T10:26:17.334Z,92.10
2022-07-30T10:28:50.128Z,91.40
2022-07-30T10:31:48.229Z,91.50
2022-07-30T10:34:12.820Z,92.00
2022-07-30T10:36:54.745Z,92.10
2022-07-30T10:39:34.505Z,92.00
2022-07-30T10:42:28.053Z,92.10
2022-07-30T10:45:22.200Z,92.20
2022-07-30T10:47:54.795Z,91.20
2022-07-30T10:50:31.368Z,91.90
2022-07-30T10:53:04.422Z,91.90
2022-07-30T10:55:39.333Z,92.40
2022-07-30T10:58:18.011Z,92.10
2022-07-30T11:01:04.618Z,92.10
2022-07-30T11:04:29.638Z,92.30
2022-07-30T11:07:33.523Z,92.20
2022-07-30T11:10:09.193Z,92.00
2022-07-30T11:12:59.777Z,91.70
2022-07-30T11:16:04.623Z,91.70
2022-07-30T11:22:29.863Z,92.40
2022-07-30T11:25:00.680Z,92.60
2022-07-30T11:27:49.209Z,93.90
2022-07-30T11:30:39.047Z,94.60
2022-07-30T11:33:32.207Z,94.80
2022-07-30T11:36:13.473Z,95.40
2022-07-30T11:39:06.857Z,95.60
2022-07-30T11:41:38.202Z,95.90
2022-07-30T11:44:37.470Z,95.90
2022-07-30T11:47:09.241Z,96.10
2022-07-30T11:49:39.681Z,96.20
2022-07-30T11:52:11.058Z,96.50
2022-07-30T11:54:56.767Z,96.60
2022-07-30T11:57:45.322Z,96.70
2022-07-30T12:00:15.961Z,96.60
2022-07-30T12:02:47.308Z,96.60
2022-07-30T12:05:18.301Z,97.00
2022-07-30T12:07:48.779Z,96.50
2022-07-30T12:10:27.929Z,96.50
2022-07-30T12:13:15.535Z,96.40
2022-07-30T12:15:49.119Z,96.50
2022-07-30T12:18:33.797Z,96.50
2022-07-30T12:21:07.033Z,96.30
2022-07-30T12:23:40.389Z,96.20
2022-07-30T12:26:10.897Z,96.20
2022-07-30T12:28:41.502Z,96.10
2022-07-30T12:31:11.875Z,96.30
2022-07-30T12:33:42.428Z,96.30
2022-07-30T12:36:12.885Z,96.60
2022-07-30T12:38:52.696Z,96.30
2022-07-30T12:41:24.122Z,96.40
2022-07-30T12:43:58.065Z,96.40
2022-07-30T12:46:30.132Z,96.50
2022-07-30T12:49:21.358Z,96.40
2022-07-30T12:52:00.124Z,96.20
2022-07-30T12:54:33.635Z,96.20
2022-07-30T12:57:07.130Z,96.20
2022-07-30T12:59:38.800Z,96.30
2022-07-30T13:02:09.079Z,96.30
2022-07-30T13:04:54.761Z,95.70
2022-07-30T13:08:02.086Z,95.70
2022-07-30T13:10:32.614Z,95.60
2022-07-30T13:13:04.429Z,95.80
2022-07-30T13:15:36.864Z,95.90
2022-07-30T13:18:16.720Z,95.70
2022-07-30T13:20:47.185Z,95.70
2022-07-30T13:23:17.488Z,95.80
2022-07-30T13:25:47.822Z,96.00
2022-07-30T13:28:18.289Z,96.10
2022-07-30T13:30:49.361Z,96.50
2022-07-30T13:33:20.201Z,96.60
2022-07-30T13:35:51.115Z,96.70
2022-07-30T13:38:21.591Z,96.80
2022-07-30T13:40:52.018Z,97.00
2022-07-30T13:43:23.459Z,96.90
2022-07-30T13:45:55.019Z,96.90
2022-07-30T13:48:31.862Z,96.90
2022-07-30T13:51:06.381Z,96.90
2022-07-30T13:53:36.795Z,97.00
2022-07-30T13:56:12.522Z,97.10
2022-07-30T13:58:44.310Z,97.30
2022-07-30T14:01:17.665Z,97.40
2022-07-30T14:03:51.584Z,97.50
2022-07-30T14:06:22.317Z,97.70
2022-07-30T14:08:53.601Z,97.90
2022-07-30T14:11:23.915Z,97.90
2022-07-30T14:13:54.384Z,97.90
2022-07-30T14:16:44.044Z,98.00
2022-07-30T14:19:23.506Z,98.00
2022-07-30T14:21:55.994Z,98.30
2022-07-30T14:24:26.824Z,98.50
2022-07-30T14:26:58.305Z,98.50
2022-07-30T14:29:30.304Z,98.50
2022-07-30T14:32:00.669Z,98.40
2022-07-30T14:34:31.224Z,98.30
2022-07-30T14:37:02.601Z,98.30
2022-07-30T14:39:33.240Z,98.60
2022-07-30T14:42:03.939Z,98.50
2022-07-30T14:44:35.016Z,98.60
2022-07-30T14:47:05.539Z,98.50
2022-07-30T14:49:36.851Z,98.60
2022-07-30T14:52:07.430Z,98.30
2022-07-30T14:54:38.599Z,98.40
2022-07-30T14:57:10.771Z,98.20
2022-07-30T14:59:41.334Z,98.20
2022-07-30T15:02:12.219Z,98.10
2022-07-30T15:04:42.645Z,98.10
2022-07-30T15:07:15.020Z,98.30
2022-07-30T15:09:45.402Z,98.40
2022-07-30T15:12:26.781Z,98.40
2022-07-30T15:14:57.708Z,98.50
2022-07-30T15:17:28.526Z,98.40
2022-07-30T15:19:59.074Z,98.50
2022-07-30T15:22:29.816Z,98.40
2022-07-30T15:25:00.359Z,98.40
2022-07-30T15:27:34.046Z,98.50
2022-07-30T15:30:05.621Z,98.70
2022-07-30T15:32:37.456Z,98.50
2022-07-30T15:35:13.212Z,98.90
2022-07-30T15:37:44.508Z,98.80
2022-07-30T15:40:15.295Z,98.80
2022-07-30T15:42:46.297Z,98.70
2022-07-30T15:45:18.054Z,98.80
2022-07-30T15:47:49.313Z,98.60
2022-07-30T15:50:20.248Z,98.80
2022-07-30T15:52:51.141Z,98.80
2022-07-30T15:55:21.489Z,98.80
2022-07-30T15:57:51.963Z,99.10
2022-07-30T16:00:22.460Z,98.70
2022-07-30T16:02:52.784Z,98.60
2022-07-30T16:05:23.060Z,98.40
2022-07-30T16:07:53.408Z,98.60
2022-07-30T16:10:23.866Z,98.70
2022-07-30T16:12:54.779Z,98.90
2022-07-30T16:15:25.227Z,98.60
2022-07-30T16:17:55.714Z,98.50
2022-07-30T16:20:26.035Z,98.60
2022-07-30T16:22:56.291Z,98.50
2022-07-30T16:25:26.867Z,98.60
2022-07-30T16:27:57.282Z,98.80
2022-07-30T16:30:27.764Z,98.80
2022-07-30T16:32:58.371Z,99.00
2022-07-30T16:35:28.785Z,99.10
2022-07-30T16:38:04.674Z,99.20
2022-07-30T16:40:36.225Z,99.10
2022-07-30T16:43:06.656Z,99.10
2022-07-30T16:45:38.641Z,99.10
2022-07-30T16:48:09.270Z,99.10
2022-07-30T16:50:41.080Z,99.00
2022-07-30T16:53:14.402Z,98.90
2022-07-30T16:55:46.990Z,99.00
2022-07-30T16:58:17.390Z,99.30
2022-07-30T17:00:47.888Z,99.00
2022-07-30T17:03:19.865Z,98.90
2022-07-30T17:05:51.118Z,98.80
2022-07-30T17:08:25.099Z,99.00
2022-07-30T17:10:57.282Z,99.20
2022-07-30T17:13:28.216Z,99.10
2022-07-30T17:15:58.784Z,98.90
2022-07-30T17:18:29.153Z,98.80
2022-07-30T17:20:59.480Z,98.60
2022-07-30T17:23:29.819Z,98.70
2022-07-30T17:26:00.232Z,98.80
2022-07-30T17:28:30.481Z,99.20
2022-07-30T17:31:00.759Z,99.30
2022-07-30T17:33:31.145Z,99.30
2022-07-30T17:36:01.801Z,99.20
2022-07-30T17:38:32.111Z,99.30
2022-07-30T17:41:02.500Z,99.20
2022-07-30T17:43:33.576Z,99.10
2022-07-30T17:46:04.591Z,99.10
2022-07-30T17:48:34.927Z,99.10
2022-07-30T17:51:05.663Z,99.00
2022-07-30T17:53:36.295Z,99.00
2022-07-30T17:56:07.465Z,98.90
2022-07-30T17:58:56.829Z,98.90
2022-07-30T18:01:27.519Z,99.00
2022-07-30T18:03:57.969Z,99.10
2022-07-30T18:06:28.276Z,99.30
2022-07-30T18:08:58.686Z,99.30
2022-07-30T18:11:29.030Z,99.20
2022-07-30T18:13:59.730Z,99.40
2022-07-30T18:16:30.032Z,99.40
2022-07-30T18:19:00.362Z,99.10
2022-07-30T18:21:30.630Z,99.30
2022-07-30T18:24:02.012Z,99.50
2022-07-30T18:26:38.577Z,99.70
2022-07-30T18:29:13.764Z,99.90
2022-07-30T18:31:44.438Z,99.90
2022-07-30T18:34:14.971Z,99.90
2022-07-30T18:36:45.375Z,99.90
2022-07-30T18:39:15.734Z,99.90
2022-07-30T18:41:46.160Z,99.90
2022-07-30T18:44:17.487Z,99.90
2022-07-30T18:46:47.859Z,99.90
2022-07-30T18:52:09.248Z,99.90
2022-07-30T18:54:40.526Z,99.90
2022-07-30T18:57:14.459Z,99.90
2022-07-30T18:59:45.065Z,99.90
2022-07-30T19:02:15.542Z,99.90
2022-07-30T19:04:45.880Z,99.90
2022-07-30T19:07:16.469Z,99.90
2022-07-30T19:09:47.275Z,99.90
2022-07-30T19:12:17.675Z,99.90
2022-07-30T19:14:48.097Z,99.90
2022-07-30T19:17:18.536Z,99.90
2022-07-30T19:19:50.893Z,99.90
2022-07-30T19:22:29.570Z,99.90
2022-07-30T19:25:01.098Z,99.90
2022-07-30T19:27:31.431Z,99.90
2022-07-30T19:30:03.689Z,99.90
2022-07-30T19:32:34.435Z,99.90
2022-07-30T19:35:04.761Z,99.90
2022-07-30T19:37:40.744Z,99.90
2022-07-30T19:40:12.731Z,99.90
2022-07-30T19:42:43.275Z,99.90
2022-07-30T19:45:14.725Z,99.90
2022-07-30T19:47:45.707Z,99.90
2022-07-30T19:50:17.092Z,99.90
2022-07-30T19:52:51.162Z,99.90
2022-07-30T19:55:35.448Z,99.90
2022-07-30T19:58:16.143Z,99.90
2022-07-30T20:00:48.524Z,99.90
2022-07-30T20:03:26.214Z,99.90
2022-07-30T20:05:59.978Z,99.90
2022-07-30T20:08:31.167Z,99.90
2022-07-30T20:11:03.452Z,99.90
2022-07-30T20:13:45.386Z,99.90
2022-07-30T20:16:17.703Z,99.90
2022-07-30T20:18:49.632Z,99.90
2022-07-30T20:21:56.742Z,99.90
2022-07-30T20:24:13.328Z,99.90
2022-07-30T20:26:45.994Z,99.90
2022-07-30T20:29:19.255Z,99.90
2022-07-30T20:32:00.501Z,99.90
2022-07-30T20:34:33.059Z,99.90
2022-07-30T20:37:13.885Z,99.90
2022-07-30T20:39:52.846Z,99.90
2022-07-30T20:42:25.792Z,99.90
2022-07-30T20:44:56.520Z,99.90
2022-07-30T20:47:34.580Z,99.90
2022-07-30T20:50:17.178Z,99.90
2022-07-30T20:53:01.435Z,99.90
2022-07-30T20:55:34.029Z,99.90
2022-07-30T20:58:16.562Z,99.90
2022-07-30T21:00:49.861Z,99.90
2022-07-30T21:03:23.860Z,99.90
2022-07-30T21:05:54.791Z,99.90
2022-07-30T21:08:27.270Z,99.90
2022-07-30T21:10:57.839Z,99.90
2022-07-30T21:13:30.691Z,99.90
2022-07-30T21:16:03.517Z,99.90
2022-07-30T21:18:34.838Z,99.90
2022-07-30T21:21:06.218Z,99.90
2022-07-30T21:23:36.687Z,99.90
2022-07-30T21:26:10.542Z,99.90
2022-07-30T21:28:44.306Z,99.90
2022-07-30T21:31:15.172Z,99.90
2022-07-30T21:33:45.983Z,99.90
2022-07-30T21:36:16.515Z,99.90
2022-07-30T21:38:55.339Z,99.90
2022-07-30T21:41:39.889Z,99.90
2022-07-30T21:44:11.479Z,99.90
2022-07-30T21:46:42.692Z,99.90
2022-07-30T21:49:13.515Z,99.90
2022-07-30T21:51:44.570Z,99.90
2022-07-30T21:54:17.062Z,99.90
2022-07-30T21:56:58.944Z,99.90
2022-07-30T21:59:29.997Z,99.90
2022-07-30T22:02:00.811Z,99.90
2022-07-30T22:04:31.335Z,99.90
2022-07-30T22:07:05.022Z,99.90
2022-07-30T22:09:36.303Z,99.90
2022-07-30T22:12:11.919Z,99.90
2022-07-30T22:14:43.455Z,99.90
2022-07-30T22:17:22.611Z,99.90
2022-07-30T22:19:56.425Z,99.90
2022-07-30T22:22:29.373Z,99.90
2022-07-30T22:25:01.282Z,99.90
2022-07-30T22:27:40.325Z,99.90
2022-07-30T22:30:22.698Z,99.90
2022-07-30T22:32:53.306Z,99.90
2022-07-30T22:35:32.338Z,99.90
2022-07-30T22:38:06.295Z,99.90
2022-07-30T22:40:36.941Z,99.90
2022-07-30T22:43:13.078Z,99.90
2022-07-30T22:45:48.971Z,99.90
2022-07-30T22:48:21.749Z,99.90
2022-07-30T22:50:58.735Z,99.90
2022-07-30T22:54:03.680Z,99.90
2022-07-30T22:56:23.859Z,99.90
2022-07-30T22:58:54.606Z,99.90
2022-07-30T23:01:25.210Z,99.90
2022-07-30T23:03:56.519Z,99.90
2022-07-30T23:06:27.092Z,99.90
2022-07-30T23:08:57.986Z,99.90
2022-07-30T23:11:36.967Z,99.90
2022-07-30T23:14:09.325Z,99.90
2022-07-30T23:16:40.698Z,99.90
2022-07-30T23:19:16.222Z,99.90
2022-07-30T23:21:53.243Z,99.90
2022-07-30T23:24:23.533Z,99.90
2022-07-30T23:26:53.859Z,99.90
2022-07-30T23:29:24.273Z,99.90
2022-07-30T23:31:54.538Z,99.90
2022-07-30T23:34:24.842Z,99.90
2022-07-30T23:36:55.272Z,99.90
2022-07-30T23:39:25.629Z,99.90
2022-07-30T23:41:55.916Z,99.90
2022-07-30T23:44:26.247Z,99.90
2022-07-30T23:46:58.345Z,99.90
2022-07-30T23:49:28.582Z,99.90
2022-07-30T23:51:58.960Z,99.90
2022-07-30T23:54:30.914Z,99.90
2022-07-30T23:57:01.636Z,99.90
2022-07-30T23:59:40.572Z,99.90
